createdAt,value
2017-09-04T00:01:09.672Z,90.05
2017-09-04T00:03:36.123Z,90.08
2017-09-04T00:06:02.551Z,90.84
2017-09-04T00:08:29.175Z,89.63
2017-09-04T00:10:55.833Z,88.77
2017-09-04T00:13:22.470Z,89.39
2017-09-04T00:15:48.978Z,90.46
2017-09-04T00:18:15.397Z,90.10
2017-09-04T00:20:41.969Z,90.00
2017-09-04T00:23:08.601Z,89.34
2017-09-04T00:25:35.251Z,90.84
2017-09-04T00:28:01.836Z,90.09
2017-09-04T00:30:28.528Z,89.81
2017-09-04T00:32:55.144Z,90.11
2017-09-04T00:35:21.762Z,90.11
2017-09-04T00:37:48.205Z,90.39
2017-09-04T00:40:14.875Z,90.62
2017-09-04T00:42:41.511Z,90.08
2017-09-04T00:45:08.133Z,89.29
2017-09-04T00:47:34.787Z,88.39
2017-09-04T00:50:01.425Z,88.14
2017-09-04T00:52:28.032Z,86.50
2017-09-04T00:54:54.702Z,87.18
2017-09-04T00:57:21.293Z,90.02
2017-09-04T00:59:47.978Z,91.45
2017-09-04T01:02:14.617Z,89.51
2017-09-04T01:04:41.254Z,88.73
2017-09-04T01:07:07.760Z,88.84
2017-09-04T01:09:34.276Z,87.96
2017-09-04T01:12:00.761Z,89.49
2017-09-04T01:14:27.399Z,90.24
2017-09-04T01:16:54.001Z,89.79
2017-09-04T01:19:20.672Z,88.40
2017-09-04T01:21:47.106Z,87.63
2017-09-04T01:24:13.530Z,88.41
2017-09-04T01:26:39.963Z,88.54
2017-09-04T01:29:06.586Z,89.19
2017-09-04T01:31:33.250Z,87.68
2017-09-04T01:33:59.676Z,88.81
2017-09-04T01:36:26.288Z,88.75
2017-09-04T01:38:52.957Z,90.12
2017-09-04T01:41:19.573Z,90.13
2017-09-04T01:43:46.233Z,91.00
2017-09-04T01:46:12.668Z,90.46
2017-09-04T01:48:39.104Z,90.23
2017-09-04T01:51:05.592Z,90.34
2017-09-04T01:53:32.172Z,90.73
2017-09-04T01:55:58.605Z,91.50
2017-09-04T01:58:25.094Z,91.81
2017-09-04T02:00:51.632Z,92.33
2017-09-04T02:03:18.298Z,92.46
2017-09-04T02:05:44.955Z,92.67
2017-09-04T02:08:11.411Z,92.44
2017-09-04T02:10:37.877Z,92.28
2017-09-04T02:13:04.242Z,92.37
2017-09-04T02:15:30.892Z,92.85
2017-09-04T02:17:57.498Z,92.86
2017-09-04T02:20:23.961Z,92.42
2017-09-04T02:22:50.360Z,92.36
2017-09-04T02:25:16.809Z,92.79
2017-09-04T02:27:43.466Z,92.69
2017-09-04T02:30:10.108Z,92.75
2017-09-04T02:32:36.730Z,92.65
2017-09-04T02:35:03.223Z,92.84
2017-09-04T02:37:29.764Z,92.48
2017-09-04T02:39:56.430Z,92.80
2017-09-04T02:42:23.092Z,92.44
2017-09-04T02:44:49.686Z,91.89
2017-09-04T02:47:16.356Z,91.48
2017-09-04T02:49:42.874Z,92.20
2017-09-04T02:52:09.491Z,91.88
2017-09-04T02:54:35.935Z,91.75
2017-09-04T02:57:02.403Z,92.34
2017-09-04T02:59:28.993Z,92.40
2017-09-04T03:01:55.437Z,92.91
2017-09-04T03:04:21.877Z,93.40
2017-09-04T03:06:48.647Z,93.17
2017-09-04T03:09:15.137Z,93.17
2017-09-04T03:11:41.580Z,93.15
2017-09-04T03:14:08.362Z,93.63
2017-09-04T03:16:34.986Z,93.12
2017-09-04T03:19:01.638Z,92.76
2017-09-04T03:21:28.246Z,92.51
2017-09-04T03:23:54.915Z,92.52
2017-09-04T03:26:21.529Z,92.79
2017-09-04T03:28:48.147Z,92.33
2017-09-04T03:31:14.828Z,92.72
2017-09-04T03:33:41.455Z,92.20
2017-09-04T03:36:08.070Z,91.72
2017-09-04T03:38:34.538Z,92.04
2017-09-04T03:41:01.176Z,92.69
2017-09-04T03:43:27.800Z,92.42
2017-09-04T03:45:54.452Z,92.75
2017-09-04T03:48:21.082Z,92.39
2017-09-04T03:50:47.675Z,92.70
2017-09-04T03:53:14.369Z,92.82
2017-09-04T03:55:41.005Z,92.28
2017-09-04T03:58:07.644Z,92.30
2017-09-04T04:00:34.266Z,92.20
2017-09-04T04:03:00.760Z,91.99
2017-09-04T04:05:27.146Z,92.02
2017-09-04T04:07:53.769Z,92.98
2017-09-04T04:10:20.423Z,92.14
2017-09-04T04:12:47.063Z,91.31
2017-09-04T04:15:13.494Z,90.64
2017-09-04T04:17:39.990Z,89.96
2017-09-04T04:20:06.778Z,89.61
2017-09-04T04:22:33.390Z,87.61
2017-09-04T04:25:00.049Z,83.56
2017-09-04T04:27:26.630Z,81.71
2017-09-04T04:29:53.328Z,80.68
2017-09-04T04:32:19.813Z,77.88
2017-09-04T04:34:46.603Z,75.54
2017-09-04T04:37:13.239Z,71.73
2017-09-04T04:39:39.674Z,69.41
2017-09-04T04:42:06.310Z,66.69
2017-09-04T04:44:32.923Z,64.05
2017-09-04T04:46:59.586Z,62.47
2017-09-04T04:49:26.017Z,59.33
2017-09-04T04:51:52.501Z,56.35
2017-09-04T04:54:18.942Z,55.59
2017-09-04T04:56:45.533Z,53.08
2017-09-04T04:59:12.028Z,50.34
2017-09-04T05:01:38.544Z,49.17
2017-09-04T05:04:05.185Z,48.78
2017-09-04T05:06:31.872Z,48.48
2017-09-04T05:08:58.494Z,48.62
2017-09-04T05:11:25.111Z,48.17
2017-09-04T05:13:51.580Z,46.27
2017-09-04T05:16:18.015Z,44.54
2017-09-04T05:18:44.613Z,41.63
2017-09-04T05:21:11.079Z,43.30
2017-09-04T05:23:37.723Z,47.62
2017-09-04T05:26:04.362Z,52.39
2017-09-04T05:28:30.794Z,54.39
2017-09-04T05:30:57.238Z,55.88
2017-09-04T05:33:23.867Z,58.44
2017-09-04T05:35:50.482Z,59.99
2017-09-04T05:38:17.143Z,63.73
2017-09-04T05:40:43.781Z,63.36
2017-09-04T05:43:10.408Z,65.20
2017-09-04T05:45:36.903Z,64.09
2017-09-04T05:48:03.285Z,66.42
2017-09-04T05:50:29.714Z,64.47
2017-09-04T05:52:56.001Z,66.71
2017-09-04T05:55:22.544Z,67.37
2017-09-04T05:57:49.210Z,68.56
2017-09-04T06:00:15.862Z,64.08
2017-09-04T06:02:42.445Z,58.16
2017-09-04T06:05:09.112Z,52.11
2017-09-04T06:07:35.754Z,51.33
2017-09-04T06:10:02.374Z,52.64
2017-09-04T06:12:28.849Z,48.00
2017-09-04T06:14:55.460Z,45.23
2017-09-04T06:17:21.922Z,39.32
2017-09-04T06:19:48.540Z,35.74
2017-09-04T06:22:15.197Z,33.32
2017-09-04T06:24:41.834Z,33.37
2017-09-04T06:27:08.319Z,31.11
2017-09-04T06:29:34.761Z,35.38
2017-09-04T06:32:01.544Z,42.27
2017-09-04T06:34:28.022Z,44.00
2017-09-04T06:36:54.310Z,47.26
2017-09-04T06:39:21.029Z,46.18
2017-09-04T06:41:47.715Z,47.30
2017-09-04T06:44:14.287Z,50.36
2017-09-04T06:46:40.761Z,48.02
2017-09-04T06:49:07.398Z,50.71
2017-09-04T06:51:34.015Z,51.50
2017-09-04T06:54:00.468Z,46.56
2017-09-04T06:56:27.076Z,47.09
2017-09-04T06:58:53.745Z,50.53
2017-09-04T07:01:20.377Z,48.86
2017-09-04T07:03:46.816Z,50.44
2017-09-04T07:06:13.455Z,49.21
2017-09-04T07:08:40.090Z,49.77
2017-09-04T07:11:06.516Z,50.54
2017-09-04T07:13:33.146Z,50.62
2017-09-04T07:15:59.663Z,52.84
2017-09-04T07:18:26.179Z,49.62
2017-09-04T07:20:52.648Z,45.15
2017-09-04T07:23:19.262Z,40.36
2017-09-04T07:25:45.735Z,36.11
2017-09-04T07:28:12.349Z,37.79
2017-09-04T07:30:38.868Z,34.35
2017-09-04T07:33:05.309Z,33.53
2017-09-04T07:35:31.728Z,34.39
2017-09-04T07:37:58.492Z,33.51
2017-09-04T07:40:25.155Z,30.43
2017-09-04T07:42:51.594Z,33.23
2017-09-04T07:45:18.227Z,29.06
2017-09-04T07:47:44.710Z,31.78
2017-09-04T07:50:11.155Z,29.98
2017-09-04T07:52:37.739Z,29.09
2017-09-04T07:55:04.063Z,29.39
2017-09-04T07:57:30.598Z,27.60
2017-09-04T07:59:57.019Z,29.81
2017-09-04T08:02:23.671Z,29.58
2017-09-04T08:04:50.132Z,27.36
2017-09-04T08:07:16.536Z,29.07
2017-09-04T08:09:43.019Z,28.73
2017-09-04T08:12:09.610Z,29.92
2017-09-04T08:14:35.966Z,29.03
2017-09-04T08:17:02.551Z,28.49
2017-09-04T08:19:29.061Z,29.42
2017-09-04T08:21:55.545Z,29.73
2017-09-04T08:24:21.874Z,28.26
2017-09-04T08:26:48.412Z,27.12
2017-09-04T08:29:15.051Z,28.87
2017-09-04T08:31:41.476Z,30.98
2017-09-04T08:34:07.966Z,31.40
2017-09-04T08:36:34.677Z,31.75
2017-09-04T08:39:01.252Z,32.03
2017-09-04T08:41:27.726Z,31.85
2017-09-04T08:43:54.310Z,32.96
2017-09-04T08:46:20.757Z,30.54
2017-09-04T08:48:47.197Z,30.13
2017-09-04T08:51:13.976Z,28.09
2017-09-04T08:53:40.283Z,29.63
2017-09-04T08:56:06.841Z,30.34
2017-09-04T08:58:33.480Z,30.59
2017-09-04T09:00:59.915Z,32.20
2017-09-04T09:03:26.341Z,30.07
2017-09-04T09:05:53.189Z,27.81
2017-09-04T09:08:19.806Z,31.00
2017-09-04T09:10:46.465Z,29.96
2017-09-04T09:13:13.102Z,27.51
2017-09-04T09:15:39.709Z,27.20
2017-09-04T09:18:06.381Z,28.25
2017-09-04T09:20:32.812Z,27.83
2017-09-04T09:22:59.243Z,28.73
2017-09-04T09:25:25.680Z,27.88
2017-09-04T09:27:52.269Z,28.19
2017-09-04T09:30:18.954Z,28.47
2017-09-04T09:32:45.581Z,29.36
2017-09-04T09:35:12.024Z,27.24
2017-09-04T09:37:38.639Z,28.31
2017-09-04T09:40:05.085Z,28.25
2017-09-04T09:42:31.603Z,27.05
2017-09-04T09:44:58.119Z,26.72
2017-09-04T09:47:24.657Z,27.01
2017-09-04T09:49:51.202Z,26.93
2017-09-04T09:52:17.672Z,28.53
2017-09-04T09:54:44.094Z,27.87
2017-09-04T09:57:10.540Z,28.05
2017-09-04T09:59:36.962Z,28.01
2017-09-04T10:02:03.464Z,28.80
2017-09-04T10:04:29.980Z,28.46
2017-09-04T10:06:56.468Z,28.35
2017-09-04T10:09:22.902Z,29.01
2017-09-04T10:11:49.755Z,27.56
2017-09-04T10:14:16.392Z,26.99
2017-09-04T10:16:42.825Z,27.52
2017-09-04T10:19:09.410Z,28.10
2017-09-04T10:21:36.077Z,31.59
2017-09-04T10:24:02.739Z,29.30
2017-09-04T10:26:29.363Z,29.47
2017-09-04T10:28:55.857Z,27.53
2017-09-04T10:31:22.298Z,28.52
2017-09-04T10:33:48.677Z,30.53
2017-09-04T10:36:15.163Z,29.83
2017-09-04T10:38:41.544Z,29.61
2017-09-04T10:41:08.141Z,29.56
2017-09-04T10:43:34.763Z,27.91
2017-09-04T10:46:01.304Z,29.10
2017-09-04T10:48:27.946Z,28.98
2017-09-04T10:50:54.709Z,29.43
2017-09-04T10:53:21.228Z,26.97
2017-09-04T10:55:47.872Z,27.61
2017-09-04T10:58:14.447Z,27.77
2017-09-04T11:00:40.933Z,27.12
2017-09-04T11:03:07.572Z,26.54
2017-09-04T11:05:34.358Z,26.69
2017-09-04T11:08:00.822Z,26.70
2017-09-04T11:10:27.232Z,27.64
2017-09-04T11:12:53.642Z,26.27
2017-09-04T11:15:20.094Z,25.36
2017-09-04T11:17:46.933Z,28.03
2017-09-04T11:20:13.362Z,26.87
2017-09-04T11:22:39.795Z,25.01
2017-09-04T11:25:06.629Z,26.51
2017-09-04T11:27:33.124Z,25.84
2017-09-04T11:29:59.882Z,28.12
2017-09-04T11:32:26.505Z,26.10
2017-09-04T11:34:53.050Z,27.17
2017-09-04T11:37:19.833Z,26.48
2017-09-04T11:39:46.473Z,28.45
2017-09-04T11:42:13.078Z,29.37
2017-09-04T11:44:39.521Z,30.55
2017-09-04T11:47:06.133Z,27.33
2017-09-04T11:49:32.679Z,26.29
2017-09-04T11:51:59.457Z,27.74
2017-09-04T11:54:25.886Z,25.85
2017-09-04T11:56:52.324Z,27.31
2017-09-04T11:59:18.946Z,24.61
2017-09-04T12:01:45.564Z,23.32
2017-09-04T12:04:12.032Z,26.01
2017-09-04T12:06:38.466Z,28.03
2017-09-04T12:09:05.106Z,27.79
2017-09-04T12:11:31.586Z,26.10
2017-09-04T12:13:58.350Z,26.44
2017-09-04T12:16:24.810Z,27.27
2017-09-04T12:18:51.414Z,26.11
2017-09-04T12:21:17.933Z,27.48
2017-09-04T12:23:44.575Z,22.91
2017-09-04T12:26:11.331Z,23.30
2017-09-04T12:28:37.857Z,27.52
2017-09-04T12:31:04.436Z,28.08
2017-09-04T12:33:30.918Z,28.02
2017-09-04T12:35:57.304Z,29.10
2017-09-04T12:38:23.898Z,29.89
2017-09-04T12:40:50.581Z,29.56
2017-09-04T12:43:17.208Z,28.78
2017-09-04T12:45:43.797Z,26.43
2017-09-04T12:48:10.343Z,26.52
2017-09-04T12:50:37.111Z,24.33
2017-09-04T12:53:03.771Z,25.31
2017-09-04T12:55:30.249Z,23.85
2017-09-04T12:57:57.014Z,25.09
2017-09-04T13:00:23.483Z,26.81
2017-09-04T13:02:50.094Z,29.74
2017-09-04T13:05:16.760Z,30.48
2017-09-04T13:07:43.189Z,33.27
2017-09-04T13:10:09.679Z,32.52
2017-09-04T13:12:36.123Z,32.83
2017-09-04T13:15:02.699Z,34.48
2017-09-04T13:17:29.178Z,34.36
2017-09-04T13:19:55.642Z,35.27
2017-09-04T13:22:22.403Z,33.89
2017-09-04T13:24:49.005Z,35.39
2017-09-04T13:27:15.469Z,35.20
2017-09-04T13:29:42.063Z,33.89
2017-09-04T13:32:08.750Z,32.86
2017-09-04T13:34:35.245Z,34.29
2017-09-04T13:37:01.789Z,34.19
2017-09-04T13:39:28.463Z,34.24
2017-09-04T13:41:55.075Z,34.93
2017-09-04T13:44:21.526Z,34.67
2017-09-04T13:46:48.133Z,34.64
2017-09-04T13:49:14.803Z,36.99
2017-09-04T13:51:41.445Z,35.54
2017-09-04T13:54:07.733Z,35.34
2017-09-04T13:56:34.106Z,36.22
2017-09-04T13:59:00.745Z,36.99
2017-09-04T14:01:27.358Z,35.97
2017-09-04T14:03:53.817Z,35.93
2017-09-04T14:06:20.480Z,36.30
2017-09-04T14:08:46.986Z,35.93
2017-09-04T14:11:13.429Z,36.12
2017-09-04T14:13:39.851Z,35.87
2017-09-04T14:16:06.339Z,40.57
2017-09-04T14:18:32.788Z,38.19
2017-09-04T14:20:59.364Z,40.05
2017-09-04T14:23:25.787Z,40.11
2017-09-04T14:25:52.225Z,38.58
2017-09-04T14:28:18.656Z,38.85
2017-09-04T14:30:45.090Z,37.04
2017-09-04T14:33:11.556Z,37.48
2017-09-04T14:35:38.141Z,36.58
2017-09-04T14:38:04.791Z,36.86
2017-09-04T14:40:31.442Z,36.91
2017-09-04T14:42:57.866Z,36.88
2017-09-04T14:45:24.514Z,37.09
2017-09-04T14:47:50.935Z,37.24
2017-09-04T14:50:17.529Z,35.88
2017-09-04T14:52:44.223Z,35.43
2017-09-04T14:55:10.659Z,35.30
2017-09-04T14:57:37.383Z,36.38
2017-09-04T15:00:03.872Z,36.07
2017-09-04T15:02:30.414Z,36.01
2017-09-04T15:04:57.059Z,34.89
2017-09-04T15:07:23.740Z,35.24
2017-09-04T15:09:50.070Z,37.34
2017-09-04T15:12:16.609Z,35.62
2017-09-04T15:14:43.045Z,35.58
2017-09-04T15:17:09.321Z,38.30
2017-09-04T15:19:35.665Z,36.74
2017-09-04T15:22:02.328Z,36.00
2017-09-04T15:24:28.799Z,37.94
2017-09-04T15:26:55.460Z,38.41
2017-09-04T15:29:21.859Z,38.26
2017-09-04T15:31:48.300Z,38.39
2017-09-04T15:34:14.888Z,39.01
2017-09-04T15:36:41.361Z,39.35
2017-09-04T15:39:08.010Z,37.72
2017-09-04T15:41:34.444Z,38.90
2017-09-04T15:44:00.875Z,38.65
2017-09-04T15:46:27.309Z,40.76
2017-09-04T15:48:53.742Z,39.99
2017-09-04T15:51:20.166Z,39.38
2017-09-04T15:53:46.654Z,39.58
2017-09-04T15:56:13.199Z,40.61
2017-09-04T15:58:39.883Z,40.29
2017-09-04T16:01:06.518Z,41.88
2017-09-04T16:03:33.155Z,42.05
2017-09-04T16:05:59.512Z,40.85
2017-09-04T16:08:25.985Z,41.92
2017-09-04T16:10:52.459Z,41.95
2017-09-04T16:13:18.736Z,42.27
2017-09-04T16:15:45.132Z,43.99
2017-09-04T16:18:11.653Z,44.15
2017-09-04T16:20:37.987Z,43.12
2017-09-04T16:23:04.411Z,43.90
2017-09-04T16:25:30.999Z,43.22
2017-09-04T16:27:57.484Z,44.12
2017-09-04T16:30:23.773Z,44.43
2017-09-04T16:32:50.103Z,46.73
2017-09-04T16:35:16.386Z,45.13
2017-09-04T16:37:42.673Z,44.87
2017-09-04T16:40:09.051Z,45.78
2017-09-04T16:42:35.337Z,47.24
2017-09-04T16:45:01.702Z,47.83
2017-09-04T16:47:28.170Z,46.61
2017-09-04T16:49:54.450Z,50.62
2017-09-04T16:52:20.739Z,47.16
2017-09-04T16:54:47.104Z,47.96
2017-09-04T16:57:13.406Z,47.21
2017-09-04T16:59:39.688Z,47.48
2017-09-04T17:02:06.055Z,50.28
2017-09-04T17:04:32.752Z,48.51
2017-09-04T17:06:59.223Z,50.11
2017-09-04T17:09:25.627Z,48.23
2017-09-04T17:11:52.232Z,49.65
2017-09-04T17:14:18.923Z,49.85
2017-09-04T17:16:45.364Z,51.13
2017-09-04T17:19:11.753Z,48.35
2017-09-04T17:21:38.058Z,51.13
2017-09-04T17:24:04.564Z,49.45
2017-09-04T17:26:31.055Z,50.45
2017-09-04T17:28:57.500Z,52.14
2017-09-04T17:31:24.035Z,54.53
2017-09-04T17:33:50.584Z,54.32
2017-09-04T17:36:17.012Z,56.58
2017-09-04T17:38:43.413Z,60.61
2017-09-04T17:41:10.085Z,58.45
2017-09-04T17:43:36.367Z,60.84
2017-09-04T17:46:02.744Z,63.84
2017-09-04T17:48:29.364Z,66.11
2017-09-04T17:50:56.021Z,66.67
2017-09-04T17:53:22.660Z,68.66
2017-09-04T17:55:49.289Z,68.69
2017-09-04T17:58:15.783Z,70.53
2017-09-04T18:00:42.159Z,69.55
2017-09-04T18:03:08.598Z,71.29
2017-09-04T18:05:35.029Z,71.80
2017-09-04T18:08:01.458Z,70.58
2017-09-04T18:10:27.892Z,70.58
2017-09-04T18:12:54.382Z,71.24
2017-09-04T18:15:20.935Z,71.54
2017-09-04T18:17:47.386Z,71.54
2017-09-04T18:20:13.887Z,70.44
2017-09-04T18:22:40.449Z,70.31
2017-09-04T18:25:06.907Z,69.08
2017-09-04T18:27:33.544Z,69.19
2017-09-04T18:30:00.125Z,71.11
2017-09-04T18:32:26.821Z,72.25
2017-09-04T18:34:53.437Z,69.32
2017-09-04T18:37:20.053Z,70.52
2017-09-04T18:39:46.524Z,69.44
2017-09-04T18:42:12.957Z,70.40
2017-09-04T18:44:39.552Z,72.37
2017-09-04T18:47:06.030Z,72.66
2017-09-04T18:49:32.362Z,74.99
2017-09-04T18:51:58.911Z,73.43
2017-09-04T18:54:25.522Z,71.05
2017-09-04T18:56:52.174Z,71.38
2017-09-04T18:59:18.812Z,75.62
2017-09-04T19:01:45.421Z,74.01
2017-09-04T19:04:12.087Z,74.93
2017-09-04T19:06:38.732Z,76.19
2017-09-04T19:09:05.043Z,76.36
2017-09-04T19:11:31.440Z,77.68
2017-09-04T19:13:57.808Z,74.67
2017-09-04T19:16:24.479Z,77.00
2017-09-04T19:18:50.889Z,78.04
2017-09-04T19:21:17.538Z,78.04
2017-09-04T19:23:43.837Z,73.52
2017-09-04T19:26:10.596Z,75.13
2017-09-04T19:28:37.459Z,79.25
2017-09-04T19:31:03.781Z,79.77
2017-09-04T19:33:30.065Z,78.95
2017-09-04T19:35:56.402Z,80.42
2017-09-04T19:38:22.690Z,79.52
2017-09-04T19:40:48.987Z,77.76
2017-09-04T19:43:15.351Z,80.19
2017-09-04T19:45:41.643Z,79.87
2017-09-04T19:48:07.943Z,78.91
2017-09-04T19:50:34.446Z,80.41
2017-09-04T19:53:00.758Z,80.81
2017-09-04T19:55:27.066Z,81.16
2017-09-04T19:57:53.404Z,80.56
2017-09-04T20:00:20.028Z,81.06
2017-09-04T20:02:46.326Z,80.99
2017-09-04T20:05:12.738Z,80.11
2017-09-04T20:07:39.038Z,81.84
2017-09-04T20:10:05.583Z,80.12
2017-09-04T20:12:32.005Z,81.87
2017-09-04T20:14:58.450Z,82.11
2017-09-04T20:17:25.087Z,82.49
2017-09-04T20:19:51.727Z,82.86
2017-09-04T20:22:18.034Z,83.09
2017-09-04T20:24:44.403Z,83.63
2017-09-04T20:27:10.840Z,83.13
2017-09-04T20:29:37.150Z,83.49
2017-09-04T20:32:03.464Z,84.34
2017-09-04T20:34:29.824Z,83.97
2017-09-04T20:36:56.140Z,84.69
2017-09-04T20:39:22.782Z,83.49
2017-09-04T20:41:49.147Z,84.02
2017-09-04T20:44:15.525Z,83.45
2017-09-04T20:46:42.051Z,84.38
2017-09-04T20:49:08.453Z,83.83
2017-09-04T20:51:34.792Z,83.08
2017-09-04T20:54:01.228Z,83.57
2017-09-04T20:56:27.573Z,83.82
2017-09-04T20:58:53.867Z,84.33
2017-09-04T21:01:20.170Z,83.47
2017-09-04T21:03:46.523Z,84.28
2017-09-04T21:06:12.809Z,84.18
2017-09-04T21:08:39.098Z,83.22
2017-09-04T21:11:05.464Z,83.65
2017-09-04T21:13:31.750Z,84.09
2017-09-04T21:15:58.032Z,84.69
2017-09-04T21:18:24.356Z,85.55
2017-09-04T21:20:50.646Z,85.59
2017-09-04T21:23:16.924Z,84.16
2017-09-04T21:25:43.250Z,83.96
2017-09-04T21:28:09.546Z,83.56
2017-09-04T21:30:35.848Z,84.37
2017-09-04T21:33:02.200Z,84.40
2017-09-04T21:35:28.507Z,84.97
2017-09-04T21:37:54.786Z,85.58
2017-09-04T21:40:21.131Z,85.78
2017-09-04T21:42:47.423Z,86.18
2017-09-04T21:45:13.701Z,85.89
2017-09-04T21:47:40.033Z,85.58
2017-09-04T21:50:06.332Z,86.66
2017-09-04T21:52:32.650Z,86.48
2017-09-04T21:54:58.989Z,85.95
2017-09-04T21:57:25.291Z,85.98
2017-09-04T21:59:51.582Z,85.24
2017-09-04T22:02:18.205Z,84.03
2017-09-04T22:04:44.669Z,82.45
2017-09-04T22:07:11.310Z,83.20
2017-09-04T22:09:37.744Z,83.65
2017-09-04T22:12:04.177Z,84.52
2017-09-04T22:14:30.610Z,85.29
2017-09-04T22:16:57.207Z,86.62
2017-09-04T22:19:23.748Z,85.20
2017-09-04T22:21:50.265Z,84.72
2017-09-04T22:24:16.805Z,84.62
2017-09-04T22:26:43.350Z,84.29
2017-09-04T22:29:09.814Z,83.32
2017-09-04T22:31:36.166Z,83.19
2017-09-04T22:34:02.486Z,82.49
2017-09-04T22:36:29.087Z,82.42
2017-09-04T22:38:55.609Z,81.98
2017-09-04T22:41:22.154Z,81.90
2017-09-04T22:43:48.832Z,80.59
2017-09-04T22:46:15.259Z,81.56
2017-09-04T22:48:41.747Z,83.39
2017-09-04T22:51:08.129Z,84.83
2017-09-04T22:53:34.730Z,84.87
2017-09-04T22:56:01.378Z,82.81
2017-09-04T22:58:27.839Z,84.77
2017-09-04T23:00:54.310Z,86.13
2017-09-04T23:03:20.778Z,85.79
2017-09-04T23:05:47.222Z,86.98
2017-09-04T23:08:13.986Z,86.35
2017-09-04T23:10:40.602Z,86.81
2017-09-04T23:13:07.096Z,85.24
2017-09-04T23:15:33.683Z,85.99
2017-09-04T23:18:00.333Z,84.28
2017-09-04T23:20:26.609Z,85.23
2017-09-04T23:22:52.986Z,84.89
2017-09-04T23:25:19.412Z,86.62
2017-09-04T23:27:46.047Z,86.83
2017-09-04T23:30:12.666Z,87.19
2017-09-04T23:32:39.341Z,87.85
2017-09-04T23:35:05.764Z,88.62
2017-09-04T23:37:32.418Z,88.87
2017-09-04T23:39:59.031Z,88.73
2017-09-04T23:42:25.691Z,88.96
2017-09-04T23:44:52.124Z,86.81
2017-09-04T23:47:18.734Z,87.12
2017-09-04T23:49:45.398Z,86.73
2017-09-04T23:52:11.864Z,86.18
2017-09-04T23:54:38.469Z,87.64
2017-09-04T23:57:05.076Z,87.15
2017-09-04T23:59:31.693Z,87.47
